Airport View

Enter AWOS ICAO identifier for current METAR.

ex. KFNL

KSWO 261053Z AUTO 12007KT 10SM FEW019 23/21 A3004 RMK AO2 SLP157 T02330211

26 Jun 2019 11:49

Frequency: 135.725

Phone: 405-743-8150

Other Area AWOS: KCUH - KGOK - KCQB - KPNC

TAF KPNC 260520Z 2606/2706 15009KT P6SM SCT250 FM261400 18012KT P6SM SCT040 SCT250 FM270000 16010KT P6SM SCT250